Open Full Screen Window  High Contrast Mode
Wind Gusting 00 knots
05
May 01, 2016 11:28 AM EDT
Weather Information
Wind Direction
  210 °
Wind Speed
  05 kt (6 mph)
Wind Gust
  00 kt (0 mph)
Altimeter
29.95 in
Visibility
10 SM
Temperature
21° C
70° F
Dewpoint
17° C
63° F
Humidity
78%
1hr Rain Fall
00.00 in.
24hr Rain Fall
00.36 in.
Sky Condition
Broken @ 3,300 ft
Broken @ 2,900 ft
Broken @ 1,900 ft
MVFR

METAR KI69 011528Z AUTO 21005KT 10SM BKN019 BKN029 BKN033 21/17 A2995 RMK AO2 T02100168

*Background is not an actual portrayal of the airport.